Time;durP1;ratioP1;P1;durP2;ratioP2;P2;SDS_P1;SDS_P2;PMS_P1;PMS_P2;Temp;Humidity;BMP_temperature;BMP_pressure;BME280_temperature;BME280_humidity;BME280_pressure;Samples;Min_cycle;Max_cycle;Signal;HPM_P1;HPM_P2
2021/10/19 00:00:27;;;;;;;12.20;10.73;;;10.60;1.00;;;;;;5105120;28;20212;-59
2021/10/19 00:02:53;;;;;;;11.90;9.90;;;10.60;1.00;;;;;;5100906;28;20452;-59
2021/10/19 00:05:19;;;;;;;11.83;10.50;;;10.60;1.00;;;;;;5101589;28;20463;-60
2021/10/19 00:07:44;;;;;;;13.37;11.47;;;10.60;1.00;;;;;;5094581;28;20199;-59
2021/10/19 00:10:12;;;;;;;14.80;12.03;;;10.50;1.00;;;;;;5110647;28;20266;-59
2021/10/19 00:12:39;;;;;;;11.83;10.30;;;10.60;1.00;;;;;;5097986;28;20293;-59
2021/10/19 00:15:08;;;;;;;13.30;10.60;;;10.60;1.00;;;;;;5095928;28;20452;-58
2021/10/19 00:17:35;;;;;;;13.83;10.50;;;10.60;1.00;;;;;;5103451;28;20448;-58
2021/10/19 00:20:01;;;;;;;14.77;11.57;;;10.60;1.00;;;;;;5108916;28;20960;-59
2021/10/19 00:22:26;;;;;;;12.43;10.30;;;10.70;1.00;;;;;;5105698;28;20449;-58
2021/10/19 00:24:52;;;;;;;12.83;11.40;;;10.60;1.00;;;;;;5096156;28;20195;-58
2021/10/19 00:27:17;;;;;;;16.40;11.20;;;10.70;1.00;;;;;;5101106;28;20186;-60
2021/10/19 00:29:43;;;;;;;12.83;10.50;;;10.70;1.00;;;;;;5107281;28;20191;-60
2021/10/19 00:32:08;;;;;;;13.20;11.47;;;10.70;1.00;;;;;;5083778;28;20205;-61
2021/10/19 00:34:34;;;;;;;14.93;11.73;;;10.70;1.00;;;;;;5081844;28;20282;-58
2021/10/19 00:37:00;;;;;;;15.00;11.10;;;10.80;1.00;;;;;;5102033;28;20210;-58
2021/10/19 00:39:25;;;;;;;12.70;10.07;;;10.80;1.00;;;;;;5108043;28;20481;-59
2021/10/19 00:41:51;;;;;;;13.47;11.37;;;10.80;1.00;;;;;;5104420;28;20207;-60
2021/10/19 00:44:16;;;;;;;14.13;11.77;;;10.80;1.00;;;;;;5101029;28;20189;-60
2021/10/19 00:46:42;;;;;;;14.03;10.67;;;10.80;1.00;;;;;;5105511;28;20230;-60
2021/10/19 00:49:08;;;;;;;13.80;11.47;;;10.80;1.00;;;;;;5107836;28;20187;-59
2021/10/19 00:51:35;;;;;;;16.10;11.37;;;10.70;1.00;;;;;;5102437;28;20476;-59
2021/10/19 00:54:01;;;;;;;12.57;11.20;;;10.80;1.00;;;;;;5098592;28;20448;-61
2021/10/19 00:56:27;;;;;;;13.40;10.90;;;10.70;1.00;;;;;;5099503;28;20976;-60
2021/10/19 00:58:52;;;;;;;12.30;11.00;;;10.70;1.00;;;;;;5103172;28;20253;-59
2021/10/19 01:01:19;;;;;;;12.20;11.00;;;10.70;1.00;;;;;;5098468;28;20208;-59
2021/10/19 01:03:45;;;;;;;13.33;11.80;;;10.80;1.00;;;;;;5107594;28;20470;-61
2021/10/19 01:06:11;;;;;;;13.47;11.27;;;10.70;1.00;;;;;;5107814;28;20949;-60
2021/10/19 01:08:37;;;;;;;13.83;11.37;;;10.60;1.00;;;;;;5098077;28;20186;-60
2021/10/19 01:11:06;;;;;;;14.00;12.40;;;10.60;1.00;;;;;;5108569;28;20191;-59
2021/10/19 01:13:34;;;;;;;12.83;11.50;;;10.60;1.00;;;;;;5100760;28;20536;-59
2021/10/19 01:16:08;;;;;;;15.33;11.20;;;10.60;1.00;;;;;;5103637;28;20510;-59
2021/10/19 01:18:34;;;;;;;16.57;11.57;;;10.60;1.00;;;;;;5107322;28;20446;-59
2021/10/19 01:21:00;;;;;;;13.73;12.20;;;10.60;1.00;;;;;;5101855;28;20501;-59
2021/10/19 01:23:26;;;;;;;20.20;12.50;;;10.50;1.00;;;;;;5099776;28;20942;-58
2021/10/19 01:25:51;;;;;;;13.43;11.90;;;10.50;1.00;;;;;;5093967;28;20481;-58
2021/10/19 01:28:19;;;;;;;12.50;11.13;;;10.50;1.00;;;;;;5085037;28;20211;-58
2021/10/19 01:30:46;;;;;;;14.67;11.40;;;10.50;1.00;;;;;;5099737;28;20198;-58
2021/10/19 01:33:13;;;;;;;16.80;11.60;;;10.50;1.00;;;;;;5108094;28;20439;-58
2021/10/19 01:35:41;;;;;;;13.03;10.77;;;10.50;1.00;;;;;;5100572;28;20452;-59
2021/10/19 01:38:11;;;;;;;11.93;10.70;;;10.50;1.00;;;;;;5103352;28;20557;-58
2021/10/19 01:40:37;;;;;;;13.80;11.90;;;10.50;1.00;;;;;;5104397;28;20448;-60
2021/10/19 01:43:08;;;;;;;14.03;11.30;;;10.50;1.00;;;;;;5095516;28;20456;-60
2021/10/19 01:45:33;;;;;;;12.43;11.03;;;10.50;1.00;;;;;;5103175;28;21202;-58
2021/10/19 01:47:59;;;;;;;13.33;9.80;;;10.50;1.00;;;;;;5106210;28;20458;-59
2021/10/19 01:50:24;;;;;;;12.27;10.70;;;10.60;1.00;;;;;;5105141;28;20236;-59
2021/10/19 01:52:51;;;;;;;15.23;11.07;;;10.50;1.00;;;;;;5100152;28;20211;-58
2021/10/19 01:55:16;;;;;;;13.63;11.53;;;10.50;1.00;;;;;;5091595;28;20196;-58
2021/10/19 01:57:42;;;;;;;15.83;11.63;;;10.50;1.00;;;;;;5105660;28;20447;-58
2021/10/19 02:00:10;;;;;;;13.73;10.60;;;10.60;1.00;;;;;;5099400;28;20273;-59
2021/10/19 02:02:35;;;;;;;12.40;11.10;;;10.60;1.00;;;;;;5101976;28;20643;-59
2021/10/19 02:05:02;;;;;;;15.70;11.37;;;10.60;1.00;;;;;;5108595;28;20450;-58
2021/10/19 02:07:28;;;;;;;13.73;10.13;;;10.60;1.00;;;;;;5094092;28;20198;-59
2021/10/19 02:09:53;;;;;;;12.80;10.47;;;10.60;1.00;;;;;;5103508;28;20449;-60
2021/10/19 02:12:19;;;;;;;13.27;11.20;;;10.70;1.00;;;;;;5101842;28;20205;-59
2021/10/19 02:14:45;;;;;;;13.23;11.73;;;10.70;1.00;;;;;;5104577;28;20468;-58
2021/10/19 02:17:10;;;;;;;14.27;11.93;;;10.70;1.00;;;;;;5087076;28;20172;-59
2021/10/19 02:19:36;;;;;;;12.83;11.20;;;10.80;1.00;;;;;;5107864;28;20183;-59
2021/10/19 02:22:01;;;;;;;12.90;11.60;;;10.80;1.00;;;;;;5096988;28;20202;-61
2021/10/19 02:24:27;;;;;;;13.67;11.90;;;10.80;1.00;;;;;;5102861;28;20202;-60
2021/10/19 02:26:52;;;;;;;12.50;10.47;;;10.70;1.00;;;;;;5105192;28;20671;-61
2021/10/19 02:29:20;;;;;;;12.03;10.83;;;10.70;1.00;;;;;;5106604;28;20194;-59
2021/10/19 02:31:46;;;;;;;15.60;11.80;;;10.70;1.00;;;;;;5100379;28;20214;-59
2021/10/19 02:34:14;;;;;;;11.17;9.97;;;10.80;1.00;;;;;;5097580;28;20955;-58
2021/10/19 02:36:39;;;;;;;12.27;10.57;;;10.80;1.00;;;;;;5104672;28;20445;-58
2021/10/19 02:39:09;;;;;;;11.77;10.57;;;10.80;1.00;;;;;;5098922;28;20794;-60
2021/10/19 02:41:35;;;;;;;12.80;11.50;;;10.80;1.00;;;;;;5094351;28;20233;-61
2021/10/19 02:44:01;;;;;;;12.83;11.50;;;10.90;1.00;;;;;;5102009;28;20530;-60
2021/10/19 02:46:28;;;;;;;14.53;11.00;;;10.90;1.00;;;;;;5102360;28;20978;-59
2021/10/19 02:48:54;;;;;;;12.40;10.17;;;10.90;1.00;;;;;;5103902;28;20459;-59
2021/10/19 02:51:19;;;;;;;13.27;10.70;;;10.90;1.00;;;;;;5094848;28;20471;-59
2021/10/19 02:53:45;;;;;;;13.57;12.17;;;10.90;1.00;;;;;;5105414;28;20192;-59
2021/10/19 02:56:11;;;;;;;11.53;10.10;;;10.90;1.00;;;;;;5090866;28;20202;-59
2021/10/19 02:58:36;;;;;;;13.07;11.60;;;10.80;1.00;;;;;;5102619;28;20202;-59
2021/10/19 03:01:02;;;;;;;12.40;10.97;;;10.80;1.00;;;;;;5106105;28;20668;-60
2021/10/19 03:03:28;;;;;;;18.33;12.17;;;10.90;1.00;;;;;;5106776;28;20605;-59
2021/10/19 03:05:54;;;;;;;14.23;11.47;;;10.90;1.00;;;;;;5102332;28;20543;-59
2021/10/19 03:08:20;;;;;;;13.23;11.83;;;10.90;1.00;;;;;;5100080;28;20261;-60
2021/10/19 03:10:46;;;;;;;12.90;10.00;;;10.80;1.00;;;;;;5102854;28;20543;-58
2021/10/19 03:13:11;;;;;;;12.57;10.90;;;10.80;1.00;;;;;;5096876;28;20467;-58
2021/10/19 03:15:37;;;;;;;12.57;11.27;;;10.80;1.00;;;;;;5099933;28;20210;-59
2021/10/19 03:18:02;;;;;;;11.93;9.93;;;10.90;1.00;;;;;;5084584;28;20175;-60
2021/10/19 03:20:30;;;;;;;13.23;11.87;;;10.80;1.00;;;;;;5104892;28;20546;-59
2021/10/19 03:22:56;;;;;;;12.03;10.70;;;10.90;1.00;;;;;;5101124;28;20545;-59
2021/10/19 03:25:21;;;;;;;13.60;11.07;;;10.80;1.00;;;;;;5106442;28;20453;-59
2021/10/19 03:27:47;;;;;;;13.67;10.70;;;10.70;1.00;;;;;;5109030;28;20171;-58
2021/10/19 03:30:12;;;;;;;13.93;11.17;;;10.70;1.00;;;;;;5104598;28;20190;-58
2021/10/19 03:32:38;;;;;;;12.90;11.13;;;10.70;1.00;;;;;;5104933;28;20210;-59
2021/10/19 03:35:04;;;;;;;13.57;10.90;;;10.60;1.00;;;;;;5108428;28;21697;-58
2021/10/19 03:37:30;;;;;;;13.87;11.33;;;10.60;1.00;;;;;;5104806;28;20189;-58
2021/10/19 03:39:55;;;;;;;12.47;11.17;;;10.60;1.00;;;;;;5112380;28;20519;-59
2021/10/19 03:42:21;;;;;;;12.50;11.20;;;10.60;1.00;;;;;;5107305;28;20700;-59
2021/10/19 03:44:46;;;;;;;12.37;11.07;;;10.50;1.00;;;;;;5102071;28;20199;-59
2021/10/19 03:47:12;;;;;;;14.60;11.10;;;10.50;1.00;;;;;;5106187;28;20219;-58
2021/10/19 03:49:38;;;;;;;17.23;11.73;;;10.30;1.00;;;;;;5106642;28;20195;-58
2021/10/19 03:52:03;;;;;;;14.07;11.73;;;10.40;1.00;;;;;;5105184;28;20690;-57
2021/10/19 03:54:29;;;;;;;16.70;12.33;;;10.40;1.00;;;;;;5105372;28;20190;-59
2021/10/19 03:56:55;;;;;;;13.23;11.93;;;10.40;1.00;;;;;;5084588;28;20436;-59
2021/10/19 03:59:20;;;;;;;13.80;12.40;;;10.40;1.00;;;;;;5103942;28;20559;-59
2021/10/19 04:01:46;;;;;;;12.83;11.57;;;10.30;1.00;;;;;;5105459;28;20190;-59
2021/10/19 04:04:12;;;;;;;12.70;11.40;;;10.40;1.00;;;;;;5108678;28;20194;-59
2021/10/19 04:06:38;;;;;;;13.30;11.10;;;10.30;1.00;;;;;;5102278;28;20190;-59
2021/10/19 04:09:03;;;;;;;12.30;10.33;;;10.30;1.00;;;;;;5098913;28;20627;-60
2021/10/19 04:11:29;;;;;;;13.50;11.63;;;10.30;1.00;;;;;;5099810;28;20465;-59
2021/10/19 04:13:55;;;;;;;15.20;12.07;;;10.30;1.00;;;;;;5094473;28;20943;-61
2021/10/19 04:16:20;;;;;;;16.23;11.90;;;10.30;1.00;;;;;;5107199;28;20223;-61
2021/10/19 04:18:46;;;;;;;13.30;11.80;;;10.30;1.00;;;;;;5102077;28;20186;-61
2021/10/19 04:21:12;;;;;;;14.20;12.43;;;10.30;1.00;;;;;;5096660;28;20267;-62
2021/10/19 04:23:37;;;;;;;18.83;11.47;;;10.20;1.00;;;;;;5098830;28;20187;-62
2021/10/19 04:26:03;;;;;;;15.50;12.33;;;10.20;1.00;;;;;;5104310;28;20176;-60
2021/10/19 04:28:29;;;;;;;15.03;12.17;;;10.20;1.00;;;;;;5100806;28;20186;-59
2021/10/19 04:30:54;;;;;;;13.00;11.47;;;10.20;1.00;;;;;;5108344;28;20206;-60
2021/10/19 04:33:20;;;;;;;14.00;11.93;;;10.20;1.00;;;;;;5100779;28;20625;-60
2021/10/19 04:35:45;;;;;;;16.07;12.83;;;10.10;1.00;;;;;;5082172;28;20263;-61
2021/10/19 04:38:11;;;;;;;17.23;12.30;;;10.10;1.00;;;;;;5096989;28;20203;-60
2021/10/19 04:40:37;;;;;;;14.77;11.87;;;10.20;1.00;;;;;;5092907;28;20180;-59
2021/10/19 04:43:03;;;;;;;13.80;11.27;;;10.30;1.00;;;;;;5102641;28;20449;-59
2021/10/19 04:45:29;;;;;;;18.10;12.07;;;10.30;1.00;;;;;;5097285;28;20217;-59
2021/10/19 04:47:56;;;;;;;16.03;11.80;;;10.30;1.00;;;;;;5100937;28;20686;-60
2021/10/19 04:50:23;;;;;;;13.10;11.40;;;10.30;1.00;;;;;;5109799;28;20775;-60
2021/10/19 04:52:48;;;;;;;13.27;11.37;;;10.40;1.00;;;;;;5098693;28;20469;-59
2021/10/19 04:55:14;;;;;;;11.57;10.20;;;10.50;1.00;;;;;;5094605;28;20446;-60
2021/10/19 04:57:40;;;;;;;11.80;10.60;;;10.60;1.00;;;;;;5106399;28;20185;-59
2021/10/19 05:00:06;;;;;;;14.27;10.87;;;10.60;1.00;;;;;;5103790;28;20679;-60
2021/10/19 05:02:32;;;;;;;23.23;12.30;;;10.60;1.00;;;;;;5100261;28;20793;-59
2021/10/19 05:04:57;;;;;;;12.07;10.77;;;10.70;1.00;;;;;;5098856;28;20438;-59
2021/10/19 05:07:23;;;;;;;17.80;11.07;;;10.70;1.00;;;;;;5095715;28;20258;-60
2021/10/19 05:09:49;;;;;;;14.60;11.17;;;10.80;1.00;;;;;;5103811;28;20668;-59
2021/10/19 05:12:15;;;;;;;15.70;12.00;;;10.80;1.00;;;;;;5099255;28;20464;-60
2021/10/19 05:14:40;;;;;;;12.03;10.67;;;10.80;1.00;;;;;;5094156;28;20668;-59
2021/10/19 05:17:06;;;;;;;12.50;10.70;;;10.80;1.00;;;;;;5094177;28;20303;-61
2021/10/19 05:19:31;;;;;;;12.77;10.90;;;10.80;1.00;;;;;;5089795;28;20214;-59
2021/10/19 05:21:57;;;;;;;13.40;10.57;;;10.90;1.00;;;;;;5098430;28;20691;-60
2021/10/19 05:24:23;;;;;;;13.30;11.83;;;10.90;1.00;;;;;;5092547;28;20194;-61
2021/10/19 05:26:48;;;;;;;12.70;10.47;;;11.00;1.00;;;;;;5094527;28;20179;-59
2021/10/19 05:29:14;;;;;;;13.27;10.80;;;11.10;1.00;;;;;;5094755;28;20183;-59
2021/10/19 05:31:40;;;;;;;14.70;11.60;;;11.30;1.00;;;;;;5096006;28;20195;-60
2021/10/19 05:34:05;;;;;;;12.27;10.80;;;11.20;1.00;;;;;;5095303;28;20180;-59
2021/10/19 05:36:31;;;;;;;13.27;11.07;;;11.20;1.00;;;;;;5070536;28;20183;-61
2021/10/19 05:38:56;;;;;;;12.10;10.77;;;11.20;1.00;;;;;;5093295;28;20187;-60
2021/10/19 05:41:22;;;;;;;14.13;11.00;;;11.30;1.00;;;;;;5100972;28;20185;-59
2021/10/19 05:43:48;;;;;;;13.27;11.83;;;;;;;;;;5095873;28;20192;-60
2021/10/19 05:46:14;;;;;;;13.00;11.50;;;11.40;1.00;;;;;;5090443;28;20692;-60
2021/10/19 05:48:40;;;;;;;13.30;11.50;;;11.50;1.00;;;;;;5099976;28;22454;-61
2021/10/19 05:51:06;;;;;;;13.93;11.00;;;11.50;1.00;;;;;;5081663;28;20445;-60
2021/10/19 05:53:32;;;;;;;16.00;11.83;;;11.50;1.00;;;;;;5090740;28;20488;-61
2021/10/19 05:55:58;;;;;;;15.33;11.60;;;11.40;1.00;;;;;;5104304;28;20905;-61
2021/10/19 05:58:23;;;;;;;15.90;12.03;;;11.40;1.00;;;;;;5095648;28;20438;-59
2021/10/19 06:00:50;;;;;;;15.93;12.17;;;11.50;1.00;;;;;;5106538;28;20174;-60
2021/10/19 06:03:16;;;;;;;16.77;12.60;;;11.60;1.00;;;;;;5095314;28;20180;-60
2021/10/19 06:05:41;;;;;;;12.47;10.70;;;11.70;1.00;;;;;;5090340;28;20458;-60
2021/10/19 06:08:07;;;;;;;14.87;11.00;;;11.70;1.00;;;;;;5095328;28;20180;-61
2021/10/19 06:10:32;;;;;;;13.57;10.87;;;11.70;1.00;;;;;;5091261;28;20586;-61
2021/10/19 06:12:58;;;;;;;15.33;12.03;;;11.70;1.00;;;;;;5095284;28;20255;-60
2021/10/19 06:15:25;;;;;;;17.03;12.00;;;11.70;1.00;;;;;;5095051;28;20177;-59
2021/10/19 06:17:51;;;;;;;15.83;11.63;;;11.90;1.00;;;;;;5093336;28;20673;-61
2021/10/19 06:20:17;;;;;;;13.90;10.80;;;11.90;1.00;;;;;;5097124;28;20795;-60
2021/10/19 06:22:43;;;;;;;14.70;10.90;;;12.00;1.00;;;;;;5095320;28;20445;-62
2021/10/19 06:25:08;;;;;;;15.17;12.07;;;12.00;1.00;;;;;;5095231;28;20439;-59
2021/10/19 06:27:34;;;;;;;14.30;11.70;;;12.00;1.00;;;;;;5104865;28;20265;-61
2021/10/19 06:30:01;;;;;;;17.20;12.73;;;12.10;1.00;;;;;;5109432;28;20194;-59
2021/10/19 06:32:27;;;;;;;17.57;12.57;;;12.10;1.00;;;;;;5093264;28;20652;-61
2021/10/19 06:34:52;;;;;;;13.73;11.23;;;12.20;1.00;;;;;;5098923;28;20891;-62
2021/10/19 06:37:18;;;;;;;16.47;11.50;;;12.20;1.00;;;;;;5091025;28;20180;-61
2021/10/19 06:39:43;;;;;;;18.40;12.10;;;12.30;1.00;;;;;;5099853;28;20174;-60
2021/10/19 06:42:11;;;;;;;18.57;12.83;;;12.30;1.00;;;;;;5094872;28;20648;-59
2021/10/19 06:44:37;;;;;;;18.60;12.00;;;12.40;1.00;;;;;;5090139;28;20184;-60
2021/10/19 06:47:02;;;;;;;20.73;13.93;;;12.40;1.00;;;;;;5092225;28;20485;-61
2021/10/19 06:49:28;;;;;;;14.33;12.83;;;12.30;1.00;;;;;;5098510;28;20186;-59
2021/10/19 06:51:53;;;;;;;16.50;12.30;;;12.40;1.00;;;;;;5113068;28;20202;-59
2021/10/19 06:54:19;;;;;;;18.90;14.17;;;12.60;1.00;;;;;;5114111;28;20666;-61
2021/10/19 06:56:44;;;;;;;13.47;11.20;;;12.50;1.00;;;;;;5108317;28;20226;-60
2021/10/19 06:59:10;;;;;;;15.40;12.17;;;12.50;1.00;;;;;;5097939;28;20176;-61
2021/10/19 07:01:35;;;;;;;17.60;11.73;;;12.40;1.00;;;;;;5094301;28;20183;-60
2021/10/19 07:04:01;;;;;;;16.73;12.23;;;12.50;1.00;;;;;;5096147;28;20180;-60
2021/10/19 07:06:26;;;;;;;13.33;11.97;;;12.60;1.00;;;;;;5094976;28;20551;-61
2021/10/19 07:08:53;;;;;;;17.90;11.77;;;12.70;1.00;;;;;;5113849;28;20179;-61
2021/10/19 07:11:19;;;;;;;15.73;12.17;;;12.70;1.00;;;;;;5107579;28;20198;-61
2021/10/19 07:13:45;;;;;;;15.80;11.60;;;12.70;1.00;;;;;;5099764;28;20451;-60
2021/10/19 07:16:10;;;;;;;18.63;13.00;;;12.60;1.00;;;;;;5101668;28;20183;-61
2021/10/19 07:18:36;;;;;;;15.53;11.77;;;12.70;1.00;;;;;;5085187;28;20249;-58
2021/10/19 07:21:01;;;;;;;14.70;11.03;;;12.60;1.00;;;;;;5093171;28;20649;-61
2021/10/19 07:23:27;;;;;;;15.97;12.13;;;12.60;1.00;;;;;;5099167;28;20230;-60
2021/10/19 07:25:53;;;;;;;14.03;11.90;;;12.60;1.00;;;;;;5113128;28;20191;-59
2021/10/19 07:28:18;;;;;;;13.23;11.83;;;12.70;1.00;;;;;;5104563;28;20644;-60
2021/10/19 07:30:45;;;;;;;16.33;12.27;;;12.70;1.00;;;;;;5092667;28;20230;-59
2021/10/19 07:33:11;;;;;;;15.03;12.10;;;12.70;1.00;;;;;;5112882;28;20456;-59
2021/10/19 07:35:37;;;;;;;14.23;12.27;;;12.80;1.00;;;;;;5113264;28;20436;-59
2021/10/19 07:38:03;;;;;;;17.23;12.87;;;12.70;1.00;;;;;;5112889;28;20440;-58
2021/10/19 07:40:29;;;;;;;15.47;12.10;;;12.80;1.00;;;;;;5112791;28;20187;-58
2021/10/19 07:42:55;;;;;;;18.03;12.60;;;12.80;1.00;;;;;;5099844;28;20897;-60
2021/10/19 07:45:23;;;;;;;14.30;11.77;;;12.90;1.00;;;;;;5092646;28;20641;-59
2021/10/19 07:47:49;;;;;;;17.33;13.63;;;13.20;1.00;;;;;;5097267;28;20446;-59
2021/10/19 07:50:18;;;;;;;19.27;13.13;;;13.40;1.00;;;;;;5095716;28;20590;-58
2021/10/19 07:52:43;;;;;;;21.50;12.60;;;13.70;1.00;;;;;;5112633;28;20522;-59
2021/10/19 07:55:10;;;;;;;16.57;12.10;;;13.70;1.00;;;;;;5112353;28;20449;-60
2021/10/19 07:57:42;;;;;;;14.23;11.80;;;13.70;1.00;;;;;;5086401;28;20188;-60
2021/10/19 08:00:08;;;;;;;16.53;11.60;;;13.70;1.00;;;;;;5110832;28;20408;-59
2021/10/19 08:02:34;;;;;;;15.47;11.20;;;13.80;1.00;;;;;;5111980;28;20826;-59
2021/10/19 08:04:59;;;;;;;13.70;11.50;;;13.80;1.00;;;;;;5112176;28;20416;-58
2021/10/19 08:07:25;;;;;;;14.30;12.27;;;13.80;1.00;;;;;;5112577;28;20259;-59
2021/10/19 08:09:50;;;;;;;13.03;11.60;;;13.70;1.00;;;;;;5111283;28;20192;-60
2021/10/19 08:12:16;;;;;;;14.57;12.03;;;13.70;1.00;;;;;;5095489;28;20250;-59
2021/10/19 08:14:41;;;;;;;15.10;12.00;;;13.80;1.00;;;;;;5092154;28;20619;-59
2021/10/19 08:17:07;;;;;;;19.23;12.70;;;13.90;1.00;;;;;;5110727;28;20587;-58
2021/10/19 08:19:33;;;;;;;14.27;11.67;;;14.10;1.00;;;;;;5109856;28;20182;-60
2021/10/19 08:21:58;;;;;;;14.83;13.30;;;14.10;1.00;;;;;;5091940;28;20746;-58
2021/10/19 08:24:24;;;;;;;14.10;11.57;;;14.20;1.00;;;;;;5103858;28;20222;-59
2021/10/19 08:26:49;;;;;;;14.03;12.50;;;14.50;1.00;;;;;;5098008;28;20196;-59
2021/10/19 08:29:15;;;;;;;13.50;12.13;;;14.40;1.00;;;;;;5091707;28;20210;-58
2021/10/19 08:31:40;;;;;;;14.10;12.70;;;14.40;1.00;;;;;;5096649;28;20208;-59
2021/10/19 08:34:06;;;;;;;14.87;11.70;;;14.40;1.00;;;;;;5094829;28;20269;-60
2021/10/19 08:36:31;;;;;;;14.30;11.90;;;14.50;1.00;;;;;;5094627;28;20236;-60
2021/10/19 08:38:57;;;;;;;12.37;11.03;;;14.50;1.00;;;;;;5075096;28;20658;-59
2021/10/19 08:41:26;;;;;;;14.67;12.47;;;14.50;1.00;;;;;;5105563;28;20191;-61
2021/10/19 08:43:52;;;;;;;16.57;12.30;;;14.50;1.00;;;;;;5112081;28;20653;-60
2021/10/19 08:46:18;;;;;;;14.63;12.70;;;14.60;1.00;;;;;;5111379;28;20518;-59
2021/10/19 08:48:44;;;;;;;14.03;11.10;;;14.50;1.00;;;;;;5110462;28;20188;-60
2021/10/19 08:51:10;;;;;;;13.93;11.73;;;14.50;1.00;;;;;;5110612;28;20445;-58
2021/10/19 08:53:40;;;;;;;12.27;10.97;;;14.40;1.00;;;;;;5111456;28;20184;-59
2021/10/19 08:56:08;;;;;;;12.67;10.50;;;14.40;1.00;;;;;;5102552;28;20188;-60
2021/10/19 08:58:34;;;;;;;14.83;11.40;;;14.50;1.00;;;;;;5091317;28;20526;-58
2021/10/19 09:01:04;;;;;;;13.07;11.73;;;14.50;1.00;;;;;;5099733;28;20499;-60
2021/10/19 09:03:31;;;;;;;16.00;11.03;;;14.40;1.00;;;;;;5102086;28;20969;-60
2021/10/19 09:05:56;;;;;;;12.63;11.33;;;14.50;1.00;;;;;;5096300;28;20445;-60
2021/10/19 09:08:25;;;;;;;13.60;11.80;;;14.40;1.00;;;;;;5094219;28;20447;-59
2021/10/19 09:10:51;;;;;;;14.30;12.13;;;14.40;1.00;;;;;;5109537;28;20185;-59
2021/10/19 09:13:17;;;;;;;12.23;10.93;;;14.60;1.00;;;;;;5081894;28;20455;-60
2021/10/19 09:15:45;;;;;;;14.33;11.30;;;14.80;1.00;;;;;;5105308;28;20463;-59
2021/10/19 09:18:17;;;;;;;12.80;10.43;;;14.90;1.00;;;;;;5093856;28;20526;-59
2021/10/19 09:20:51;;;;;;;14.03;11.87;;;15.10;1.00;;;;;;5110873;28;20456;-60
2021/10/19 09:23:18;;;;;;;12.20;10.83;;;15.50;1.00;;;;;;5093214;28;20418;-60
2021/10/19 09:25:49;;;;;;;12.77;10.93;;;15.60;1.00;;;;;;5092847;28;20489;-61
2021/10/19 09:28:31;;;;;;;11.23;10.03;;;15.90;1.00;;;;;;5111502;28;20451;-59
2021/10/19 09:30:58;;;;;;;13.20;10.53;;;16.10;1.00;;;;;;5111374;28;21016;-59
2021/10/19 09:33:23;;;;;;;12.33;9.73;;;16.40;1.00;;;;;;5111333;28;20434;-61
2021/10/19 09:35:51;;;;;;;11.50;10.03;;;16.30;1.00;;;;;;5110983;28;20761;-59
2021/10/19 09:38:17;;;;;;;11.93;9.93;;;16.30;1.00;;;;;;5110928;28;20203;-59
2021/10/19 09:40:47;;;;;;;13.83;9.40;;;17.20;1.00;;;;;;5110955;28;20417;-59
2021/10/19 09:43:16;;;;;;;14.97;10.90;;;16.40;1.00;;;;;;5083417;28;21014;-60
2021/10/19 09:45:44;;;;;;;15.37;12.13;;;16.60;1.00;;;;;;5089992;28;20467;-60
2021/10/19 09:48:16;;;;;;;12.40;10.50;;;16.80;1.00;;;;;;5090792;28;20444;-59
2021/10/19 09:50:43;;;;;;;11.67;10.50;;;17.00;1.00;;;;;;5109688;28;20417;-60
2021/10/19 09:53:11;;;;;;;11.97;10.03;;;17.10;1.00;;;;;;5111098;28;20918;-61
2021/10/19 09:55:37;;;;;;;11.83;10.63;;;17.50;1.00;;;;;;5110704;28;20415;-61
2021/10/19 09:58:03;;;;;;;11.47;10.27;;;17.80;1.00;;;;;;5110938;28;20443;-60
2021/10/19 10:00:32;;;;;;;11.00;9.90;;;18.10;1.00;;;;;;5086512;28;20853;-59
2021/10/19 10:03:03;;;;;;;10.10;9.07;;;18.10;1.00;;;;;;5090234;28;20188;-59
2021/10/19 10:05:30;;;;;;;10.83;9.60;;;18.20;1.00;;;;;;5090578;28;20482;-62
2021/10/19 10:07:56;;;;;;;10.70;9.40;;;18.10;1.00;;;;;;5093949;28;20441;-60
2021/10/19 10:10:23;;;;;;;11.07;9.87;;;18.00;1.00;;;;;;5072387;28;20449;-61
2021/10/19 10:13:01;;;;;;;10.93;9.83;;;18.10;1.00;;;;;;5089949;28;20478;-61
2021/10/19 10:15:35;;;;;;;11.63;10.10;;;18.10;1.00;;;;;;5090375;28;20433;-59
2021/10/19 10:18:06;;;;;;;10.53;9.27;;;18.00;1.00;;;;;;5109836;28;20585;-60
2021/10/19 10:20:57;;;;;;;10.60;9.60;;;18.00;1.00;;;;;;5109613;28;20902;-60
2021/10/19 10:23:26;;;;;;;12.03;9.13;;;17.80;1.00;;;;;;5105558;28;20533;-60
2021/10/19 10:25:54;;;;;;;10.73;9.17;;;17.90;1.00;;;;;;5111045;28;20480;-60
2021/10/19 10:28:27;;;;;;;11.03;9.83;;;17.90;1.00;;;;;;5114760;28;21172;-59
2021/10/19 10:30:54;;;;;;;9.70;8.80;;;17.90;1.00;;;;;;5114410;28;20940;-60
2021/10/19 10:33:35;;;;;;;12.80;9.20;;;18.10;1.00;;;;;;5114461;28;20459;-59
2021/10/19 10:36:05;;;;;;;10.77;9.40;;;18.20;1.00;;;;;;5114320;28;20482;-59
2021/10/19 10:38:31;;;;;;;9.77;8.83;;;18.40;1.00;;;;;;5114407;28;20440;-59
2021/10/19 10:41:08;;;;;;;11.67;10.17;;;18.60;1.00;;;;;;5113857;28;20451;-61
2021/10/19 10:43:36;;;;;;;9.97;8.93;;;18.80;1.00;;;;;;5094131;28;20190;-61
2021/10/19 10:46:14;;;;;;;10.47;9.37;;;19.00;1.00;;;;;;5093534;28;20470;-59
2021/10/19 10:48:40;;;;;;;10.27;9.20;;;18.90;1.00;;;;;;5094135;28;20766;-60
2021/10/19 10:51:08;;;;;;;13.17;9.83;;;18.90;1.00;;;;;;5093420;28;20470;-60
2021/10/19 10:53:39;;;;;;;10.50;9.00;;;18.80;1.00;;;;;;5094044;28;20444;-59
2021/10/19 10:56:06;;;;;;;10.13;9.00;;;18.90;1.00;;;;;;5075452;28;20812;-60
2021/10/19 10:58:35;;;;;;;11.37;9.23;;;18.80;1.00;;;;;;5093867;28;20416;-60
2021/10/19 11:01:19;;;;;;;11.13;8.77;;;18.80;1.00;;;;;;5093652;28;21000;-60
2021/10/19 11:03:48;;;;;;;9.37;8.27;;;18.90;1.00;;;;;;5093611;28;20421;-59
2021/10/19 11:06:19;;;;;;;12.10;8.63;;;19.00;1.00;;;;;;5093534;28;20445;-60
2021/10/19 11:08:47;;;;;;;12.70;9.83;;;19.00;1.00;;;;;;5093890;28;20445;-60
2021/10/19 11:11:18;;;;;;;9.00;8.17;;;19.10;1.00;;;;;;5093209;28;20981;-61
2021/10/19 11:13:54;;;;;;;9.30;8.30;;;19.20;1.00;;;;;;5112544;28;20437;-59
2021/10/19 11:16:27;;;;;;;11.97;9.87;;;19.10;1.00;;;;;;5113989;28;21172;-60
2021/10/19 11:18:53;;;;;;;19.97;10.37;;;19.20;1.00;;;;;;5113393;28;20528;-60
2021/10/19 11:21:19;;;;;;;9.37;8.57;;;19.20;1.00;;;;;;5113159;28;20494;-61
2021/10/19 11:23:46;;;;;;;9.87;8.57;;;19.10;1.00;;;;;;5113774;28;20838;-59
2021/10/19 11:26:12;;;;;;;10.60;8.40;;;19.20;1.00;;;;;;5113547;28;20465;-61
2021/10/19 11:28:41;;;;;;;9.40;7.67;;;19.20;1.00;;;;;;5112210;28;20438;-60
2021/10/19 11:31:08;;;;;;;14.00;9.00;;;19.20;1.00;;;;;;5113287;28;20431;-60
2021/10/19 11:33:42;;;;;;;12.53;8.57;;;19.30;1.00;;;;;;5114059;28;20558;-60
2021/10/19 11:36:08;;;;;;;9.07;8.17;;;19.30;1.00;;;;;;5113348;28;20410;-60
2021/10/19 11:38:41;;;;;;;9.20;8.17;;;19.50;1.00;;;;;;5093908;28;20459;-60
2021/10/19 11:41:27;;;;;;;10.30;7.70;;;19.60;1.00;;;;;;5112962;28;20431;-60
2021/10/19 11:43:56;;;;;;;10.40;8.00;;;19.70;1.00;;;;;;5104636;28;20408;-59
2021/10/19 11:46:25;;;;;;;11.27;8.80;;;19.70;1.00;;;;;;5092624;28;20791;-60
2021/10/19 11:48:53;;;;;;;8.70;7.80;;;19.60;1.00;;;;;;5093693;28;20590;-61
2021/10/19 11:51:23;;;;;;;11.70;8.37;;;19.50;1.00;;;;;;5074544;28;20400;-61
2021/10/19 11:53:49;;;;;;;9.53;7.47;;;19.50;1.00;;;;;;5092662;28;20446;-60
2021/10/19 11:56:17;;;;;;;8.27;7.47;;;19.40;1.00;;;;;;5092632;28;20934;-59
2021/10/19 11:59:02;;;;;;;13.10;8.03;;;19.40;1.00;;;;;;5092553;28;20529;-60
2021/10/19 12:01:36;;;;;;;8.23;7.43;;;19.30;1.00;;;;;;5092340;28;20539;-59
2021/10/19 12:04:07;;;;;;;9.53;8.23;;;19.30;1.00;;;;;;5092327;28;20528;-61
2021/10/19 12:06:34;;;;;;;8.57;7.70;;;19.40;1.00;;;;;;5092299;28;20417;-60
2021/10/19 12:09:10;;;;;;;10.03;7.50;;;19.40;1.00;;;;;;5074432;28;20484;-61
2021/10/19 12:11:36;;;;;;;8.33;7.50;;;19.40;1.00;;;;;;5077202;28;20431;-63
2021/10/19 12:14:02;;;;;;;9.03;7.33;;;19.50;1.00;;;;;;5092161;28;20438;-60
2021/10/19 12:16:30;;;;;;;8.67;7.60;;;19.30;1.00;;;;;;5092072;28;20183;-62
2021/10/19 12:19:00;;;;;;;8.00;7.27;;;19.30;1.00;;;;;;5092054;28;20464;-61
2021/10/19 12:21:28;;;;;;;7.87;7.07;;;19.40;1.00;;;;;;5092037;28;20840;-60
2021/10/19 12:24:01;;;;;;;8.47;7.67;;;19.40;1.00;;;;;;5092156;28;20434;-60
2021/10/19 12:26:29;;;;;;;8.97;7.73;;;19.40;1.00;;;;;;5091725;28;20400;-59
2021/10/19 12:28:57;;;;;;;8.97;6.90;;;19.40;1.00;;;;;;5091846;28;20457;-61
2021/10/19 12:31:24;;;;;;;7.93;6.63;;;19.30;1.00;;;;;;5092494;28;20803;-59
2021/10/19 12:34:03;;;;;;;9.50;8.43;;;19.30;1.00;;;;;;5091768;28;20502;-61
2021/10/19 12:36:37;;;;;;;10.10;7.87;;;19.40;1.00;;;;;;5091580;28;20442;-62
2021/10/19 12:39:21;;;;;;;8.67;7.40;;;19.30;1.00;;;;;;5091815;28;20435;-60